EJU3831 EDDE-EHEH
Flight info
| Callsign | EJU3831 |
|---|---|
| Flight time | 0h 43m |
| Altitude | 24000 |
| Route | ERSIL1D ERSIL Y220 ELNAT Z190 WRB DCT GILIV |
| Aircraft | A20N/M-SDE2E3FGHIRWXY/LB1 |
Departure
| Time | 2026-05-09 13:26 |
|---|---|
| Airport | Erfurt-Weimar Airport (EDDE) |
Arrival
| Time | 2026-05-09 14:09 |
|---|---|
| Airport | Eindhoven Airport (EHEH) |
| Time | Latitude | Longitude | Altitude | Speed | Heading |
|---|---|---|---|---|---|
| 2026-05-09 12:55 | 50.97549 | 10.96315 | 1038 ft | 0 kts | 97° |
| 2026-05-09 13:21 | 50.97549 | 10.96327 | 1038 ft | 5 kts | 97° |
| 2026-05-09 13:22 | 50.97557 | 10.96403 | 1038 ft | 5 kts | 36° |
| 2026-05-09 13:22 | 50.97609 | 10.96419 | 1038 ft | 9 kts | 5° |
| 2026-05-09 13:22 | 50.97679 | 10.96430 | 1038 ft | 7 kts | 6° |
| 2026-05-09 13:23 | 50.97680 | 10.96911 | 1035 ft | 20 kts | 97° |
| 2026-05-09 13:23 | 50.97685 | 10.97123 | 1034 ft | 21 kts | 81° |
| 2026-05-09 13:24 | 50.97705 | 10.97326 | 1033 ft | 15 kts | 82° |
| 2026-05-09 13:24 | 50.97712 | 10.97407 | 1033 ft | 0 kts | 81° |
| 2026-05-09 13:24 | 50.97746 | 10.97495 | 1032 ft | 19 kts | 49° |
| 2026-05-09 13:25 | 50.97834 | 10.97573 | 1028 ft | 7 kts | 335° |
| 2026-05-09 13:25 | 50.97848 | 10.97470 | 1030 ft | 15 kts | 275° |
| 2026-05-09 13:25 | 50.97996 | 10.95656 | 1043 ft | 141 kts | 278° |
| 2026-05-09 13:26 | 50.98110 | 10.94068 | 1537 ft | 145 kts | 278° |
| 2026-05-09 13:26 | 50.98172 | 10.92470 | 2206 ft | 145 kts | 275° |
| 2026-05-09 13:26 | 50.98218 | 10.90853 | 2824 ft | 150 kts | 275° |
| 2026-05-09 13:26 | 50.98273 | 10.89113 | 3286 ft | 165 kts | 274° |
| 2026-05-09 13:27 | 50.98334 | 10.87188 | 3742 ft | 184 kts | 273° |
| 2026-05-09 13:27 | 50.98365 | 10.85055 | 4255 ft | 204 kts | 270° |
| 2026-05-09 13:27 | 50.98373 | 10.82663 | 4810 ft | 229 kts | 270° |
| 2026-05-09 13:27 | 50.98382 | 10.80030 | 5546 ft | 248 kts | 269° |
| 2026-05-09 13:28 | 50.98393 | 10.77185 | 6313 ft | 266 kts | 270° |
| 2026-05-09 13:28 | 50.98411 | 10.74210 | 6884 ft | 270 kts | 270° |
| 2026-05-09 13:28 | 50.98432 | 10.71221 | 7084 ft | 271 kts | 270° |
| 2026-05-09 13:28 | 50.98453 | 10.68228 | 7146 ft | 271 kts | 270° |
| 2026-05-09 13:29 | 50.98471 | 10.65226 | 7146 ft | 273 kts | 270° |
| 2026-05-09 13:29 | 50.98489 | 10.62227 | 7144 ft | 271 kts | 270° |
| 2026-05-09 13:29 | 50.98506 | 10.59241 | 7141 ft | 271 kts | 269° |
| 2026-05-09 13:29 | 50.98593 | 10.56259 | 7136 ft | 271 kts | 277° |
| 2026-05-09 13:30 | 50.99013 | 10.53324 | 7153 ft | 274 kts | 288° |
| 2026-05-09 13:30 | 50.99713 | 10.50496 | 7442 ft | 276 kts | 290° |
| 2026-05-09 13:30 | 51.00423 | 10.47649 | 8340 ft | 277 kts | 290° |
| 2026-05-09 13:30 | 51.01118 | 10.44816 | 9561 ft | 277 kts | 290° |
| 2026-05-09 13:31 | 51.01824 | 10.41930 | 10492 ft | 286 kts | 290° |
| 2026-05-09 13:31 | 51.02572 | 10.38867 | 10976 ft | 310 kts | 290° |
| 2026-05-09 13:31 | 51.03383 | 10.35546 | 11416 ft | 332 kts | 290° |
| 2026-05-09 13:31 | 51.04229 | 10.32085 | 12243 ft | 339 kts | 290° |
| 2026-05-09 13:32 | 51.05091 | 10.28562 | 13177 ft | 345 kts | 290° |
| 2026-05-09 13:32 | 51.06931 | 10.21405 | 14921 ft | 353 kts | 292° |
| 2026-05-09 13:32 | 51.07886 | 10.17784 | 15762 ft | 358 kts | 292° |
| 2026-05-09 13:33 | 51.08849 | 10.14122 | 16602 ft | 361 kts | 292° |
| 2026-05-09 13:33 | 51.09504 | 10.11617 | 17156 ft | 364 kts | 292° |
| 2026-05-09 13:33 | 51.10477 | 10.07874 | 17983 ft | 368 kts | 292° |
| 2026-05-09 13:33 | 51.11778 | 10.02850 | 18959 ft | 374 kts | 292° |
| 2026-05-09 13:34 | 51.12769 | 9.99008 | 19650 ft | 378 kts | 292° |
| 2026-05-09 13:34 | 51.13447 | 9.96381 | 20084 ft | 381 kts | 292° |
| 2026-05-09 13:34 | 51.14457 | 9.92455 | 20759 ft | 385 kts | 292° |
| 2026-05-09 13:34 | 51.15477 | 9.88485 | 21417 ft | 390 kts | 292° |
| 2026-05-09 13:35 | 51.16509 | 9.84463 | 22078 ft | 394 kts | 292° |
| 2026-05-09 13:35 | 51.17549 | 9.80401 | 22729 ft | 398 kts | 292° |
| 2026-05-09 13:35 | 51.18601 | 9.76289 | 23382 ft | 403 kts | 292° |
| 2026-05-09 13:35 | 51.19703 | 9.72155 | 23889 ft | 407 kts | 296° |
| 2026-05-09 13:36 | 51.21091 | 9.68233 | 24068 ft | 407 kts | 304° |
| 2026-05-09 13:36 | 51.22783 | 9.64623 | 24124 ft | 407 kts | 310° |
| 2026-05-09 13:36 | 51.24621 | 9.61193 | 24124 ft | 407 kts | 310° |
| 2026-05-09 13:36 | 51.26450 | 9.57749 | 24126 ft | 406 kts | 310° |
| 2026-05-09 13:37 | 51.28862 | 9.53183 | 24123 ft | 406 kts | 310° |
| 2026-05-09 13:37 | 51.30089 | 9.50852 | 24123 ft | 406 kts | 310° |
| 2026-05-09 13:37 | 51.31910 | 9.47393 | 24124 ft | 408 kts | 310° |
| 2026-05-09 13:37 | 51.33733 | 9.43923 | 24127 ft | 407 kts | 310° |
| 2026-05-09 13:38 | 51.35556 | 9.40451 | 24134 ft | 407 kts | 310° |
| 2026-05-09 13:38 | 51.37374 | 9.36983 | 24124 ft | 407 kts | 310° |
| 2026-05-09 13:38 | 51.39192 | 9.33513 | 24124 ft | 407 kts | 310° |
| 2026-05-09 13:38 | 51.40992 | 9.30070 | 24127 ft | 406 kts | 310° |
| 2026-05-09 13:39 | 51.42803 | 9.26604 | 24127 ft | 406 kts | 310° |
| 2026-05-09 13:39 | 51.44598 | 9.23104 | 24128 ft | 407 kts | 309° |
| 2026-05-09 13:39 | 51.46369 | 9.19564 | 24129 ft | 407 kts | 308° |
| 2026-05-09 13:39 | 51.48120 | 9.16007 | 24121 ft | 407 kts | 306° |
| 2026-05-09 13:40 | 51.49474 | 9.12026 | 24121 ft | 407 kts | 290° |
| 2026-05-09 13:40 | 51.50124 | 9.07629 | 24121 ft | 407 kts | 275° |
| 2026-05-09 13:40 | 51.50053 | 9.03092 | 24125 ft | 408 kts | 264° |
| 2026-05-09 13:40 | 51.49745 | 8.98562 | 24122 ft | 408 kts | 264° |
| 2026-05-09 13:41 | 51.49438 | 8.94044 | 24128 ft | 408 kts | 264° |
| 2026-05-09 13:41 | 51.49131 | 8.89514 | 24122 ft | 408 kts | 264° |
| 2026-05-09 13:41 | 51.48823 | 8.84987 | 24122 ft | 408 kts | 264° |
| 2026-05-09 13:41 | 51.48515 | 8.80460 | 24126 ft | 408 kts | 264° |
| 2026-05-09 13:42 | 51.48205 | 8.75939 | 24124 ft | 408 kts | 264° |
| 2026-05-09 13:42 | 51.47893 | 8.71411 | 24124 ft | 409 kts | 264° |
| 2026-05-09 13:42 | 51.47578 | 8.66878 | 24120 ft | 409 kts | 264° |
| 2026-05-09 13:42 | 51.47265 | 8.62364 | 24126 ft | 406 kts | 264° |
| 2026-05-09 13:43 | 51.46950 | 8.57880 | 24127 ft | 405 kts | 263° |
| 2026-05-09 13:43 | 51.46632 | 8.53374 | 24124 ft | 407 kts | 263° |
| 2026-05-09 13:43 | 51.46311 | 8.48864 | 24123 ft | 407 kts | 263° |
| 2026-05-09 13:43 | 51.45989 | 8.44349 | 24119 ft | 406 kts | 263° |
| 2026-05-09 13:44 | 51.45666 | 8.39850 | 24105 ft | 406 kts | 263° |
| 2026-05-09 13:44 | 51.45342 | 8.35358 | 24108 ft | 407 kts | 263° |
| 2026-05-09 13:44 | 51.45015 | 8.30852 | 24105 ft | 408 kts | 263° |
| 2026-05-09 13:44 | 51.44687 | 8.26346 | 24103 ft | 407 kts | 263° |
| 2026-05-09 13:45 | 51.44357 | 8.21848 | 24102 ft | 406 kts | 263° |
| 2026-05-09 13:45 | 51.44027 | 8.17356 | 24102 ft | 406 kts | 263° |
| 2026-05-09 13:45 | 51.43694 | 8.12852 | 24103 ft | 408 kts | 263° |
| 2026-05-09 13:45 | 51.43358 | 8.08338 | 24099 ft | 407 kts | 263° |
| 2026-05-09 13:46 | 51.43021 | 8.03834 | 24101 ft | 407 kts | 263° |
| 2026-05-09 13:46 | 51.42682 | 7.99326 | 24102 ft | 407 kts | 263° |
| 2026-05-09 13:46 | 51.42341 | 7.94826 | 24102 ft | 407 kts | 263° |
| 2026-05-09 13:46 | 51.41998 | 7.90318 | 24103 ft | 407 kts | 263° |
| 2026-05-09 13:47 | 51.41653 | 7.85814 | 24099 ft | 407 kts | 263° |
| 2026-05-09 13:47 | 51.41308 | 7.81317 | 24099 ft | 407 kts | 263° |
| 2026-05-09 13:47 | 51.40960 | 7.76809 | 24102 ft | 407 kts | 263° |
| 2026-05-09 13:47 | 51.40610 | 7.72310 | 24104 ft | 407 kts | 263° |
| 2026-05-09 13:48 | 51.40259 | 7.67804 | 24101 ft | 407 kts | 262° |
| 2026-05-09 13:48 | 51.39912 | 7.63360 | 24101 ft | 407 kts | 262° |
| 2026-05-09 13:48 | 51.39557 | 7.58855 | 24104 ft | 407 kts | 262° |
| 2026-05-09 13:48 | 51.39201 | 7.54359 | 24101 ft | 407 kts | 262° |
| 2026-05-09 13:49 | 51.38842 | 7.49851 | 24098 ft | 407 kts | 262° |
| 2026-05-09 13:49 | 51.38482 | 7.45353 | 24100 ft | 407 kts | 262° |
| 2026-05-09 13:49 | 51.38119 | 7.40846 | 24095 ft | 407 kts | 262° |
| 2026-05-09 13:49 | 51.37755 | 7.36341 | 24093 ft | 407 kts | 262° |
| 2026-05-09 13:50 | 51.37395 | 7.31905 | 24096 ft | 407 kts | 262° |
| 2026-05-09 13:50 | 51.37028 | 7.27410 | 24097 ft | 407 kts | 262° |
| 2026-05-09 13:50 | 51.36659 | 7.22901 | 24096 ft | 407 kts | 262° |
| 2026-05-09 13:50 | 51.36288 | 7.18400 | 24099 ft | 407 kts | 262° |
| 2026-05-09 13:51 | 51.35916 | 7.13892 | 24085 ft | 406 kts | 261° |
| 2026-05-09 13:51 | 51.35546 | 7.09430 | 23802 ft | 404 kts | 261° |
| 2026-05-09 13:51 | 51.35179 | 7.05040 | 23275 ft | 402 kts | 261° |
| 2026-05-09 13:51 | 51.34808 | 7.00623 | 22662 ft | 398 kts | 261° |
| 2026-05-09 13:52 | 51.34440 | 6.96249 | 22030 ft | 394 kts | 261° |
| 2026-05-09 13:52 | 51.34072 | 6.91905 | 21407 ft | 391 kts | 261° |
| 2026-05-09 13:52 | 51.33706 | 6.87613 | 20800 ft | 387 kts | 261° |
| 2026-05-09 13:52 | 51.33348 | 6.83422 | 20212 ft | 384 kts | 260° |
| 2026-05-09 13:53 | 51.32985 | 6.79202 | 19624 ft | 380 kts | 260° |
| 2026-05-09 13:53 | 51.32625 | 6.75026 | 19044 ft | 377 kts | 260° |
| 2026-05-09 13:53 | 51.32266 | 6.70879 | 18479 ft | 374 kts | 260° |
| 2026-05-09 13:53 | 51.31911 | 6.66772 | 17920 ft | 369 kts | 259° |
| 2026-05-09 13:54 | 51.31559 | 6.62731 | 17404 ft | 363 kts | 259° |
| 2026-05-09 13:54 | 51.31208 | 6.58735 | 17129 ft | 363 kts | 259° |
| 2026-05-09 13:54 | 51.30858 | 6.54777 | 16898 ft | 364 kts | 259° |
| 2026-05-09 13:54 | 51.30504 | 6.50775 | 16470 ft | 364 kts | 259° |
| 2026-05-09 13:55 | 51.30147 | 6.46763 | 15917 ft | 362 kts | 259° |
| 2026-05-09 13:55 | 51.29793 | 6.42790 | 15369 ft | 359 kts | 260° |
| 2026-05-09 13:55 | 51.29442 | 6.38859 | 14827 ft | 355 kts | 260° |
| 2026-05-09 13:55 | 51.29094 | 6.34973 | 14290 ft | 351 kts | 260° |
| 2026-05-09 13:56 | 51.28747 | 6.31132 | 13741 ft | 347 kts | 260° |
| 2026-05-09 13:56 | 51.28402 | 6.27331 | 13187 ft | 343 kts | 260° |
| 2026-05-09 13:56 | 51.28066 | 6.23634 | 12688 ft | 338 kts | 260° |
| 2026-05-09 13:56 | 51.27728 | 6.19937 | 12185 ft | 334 kts | 260° |
| 2026-05-09 13:57 | 51.27393 | 6.16288 | 11669 ft | 330 kts | 260° |
| 2026-05-09 13:57 | 51.27061 | 6.12674 | 11167 ft | 327 kts | 260° |
| 2026-05-09 13:57 | 51.26730 | 6.09093 | 10673 ft | 324 kts | 260° |
| 2026-05-09 13:57 | 51.26403 | 6.05562 | 10343 ft | 314 kts | 260° |
| 2026-05-09 13:58 | 51.26092 | 6.02201 | 10187 ft | 298 kts | 260° |
| 2026-05-09 13:58 | 51.25796 | 5.98999 | 10036 ft | 286 kts | 260° |
| 2026-05-09 13:58 | 51.25510 | 5.95922 | 9701 ft | 280 kts | 260° |
| 2026-05-09 13:58 | 51.25231 | 5.92880 | 9544 ft | 276 kts | 262° |
| 2026-05-09 13:59 | 51.25316 | 5.89782 | 9245 ft | 285 kts | 281° |
| 2026-05-09 13:59 | 51.26055 | 5.86831 | 8867 ft | 288 kts | 296° |
| 2026-05-09 13:59 | 51.27016 | 5.84036 | 8484 ft | 285 kts | 297° |
| 2026-05-09 13:59 | 51.27968 | 5.81260 | 8104 ft | 282 kts | 297° |
| 2026-05-09 14:00 | 51.28890 | 5.78551 | 7736 ft | 279 kts | 297° |
| 2026-05-09 14:00 | 51.29204 | 5.77625 | 7598 ft | 279 kts | 297° |
| 2026-05-09 14:00 | 51.30726 | 5.73085 | 6987 ft | 278 kts | 297° |
| 2026-05-09 14:00 | 51.31642 | 5.70356 | 6598 ft | 277 kts | 297° |
| 2026-05-09 14:01 | 51.32555 | 5.67627 | 6191 ft | 278 kts | 297° |
| 2026-05-09 14:01 | 51.33429 | 5.64914 | 5807 ft | 276 kts | 289° |
| 2026-05-09 14:01 | 51.33703 | 5.61932 | 5442 ft | 271 kts | 264° |
| 2026-05-09 14:01 | 51.33249 | 5.59037 | 5070 ft | 267 kts | 252° |
| 2026-05-09 14:02 | 51.32683 | 5.56210 | 4681 ft | 266 kts | 252° |
| 2026-05-09 14:02 | 51.32122 | 5.53398 | 4321 ft | 265 kts | 252° |
| 2026-05-09 14:02 | 51.31565 | 5.50596 | 4133 ft | 265 kts | 252° |
| 2026-05-09 14:02 | 51.31023 | 5.47850 | 4089 ft | 252 kts | 252° |
| 2026-05-09 14:03 | 51.30513 | 5.45258 | 4087 ft | 237 kts | 252° |
| 2026-05-09 14:03 | 51.30035 | 5.42825 | 4062 ft | 221 kts | 252° |
| 2026-05-09 14:03 | 51.29591 | 5.40567 | 3938 ft | 210 kts | 252° |
| 2026-05-09 14:03 | 51.29147 | 5.38312 | 3595 ft | 214 kts | 252° |
| 2026-05-09 14:04 | 51.28775 | 5.35992 | 3257 ft | 217 kts | 269° |
| 2026-05-09 14:04 | 51.29133 | 5.33709 | 3057 ft | 212 kts | 301° |
| 2026-05-09 14:04 | 51.29944 | 5.31711 | 2725 ft | 217 kts | 306° |
| 2026-05-09 14:04 | 51.30801 | 5.29751 | 2584 ft | 211 kts | 306° |
| 2026-05-09 14:05 | 51.31609 | 5.27896 | 2542 ft | 196 kts | 306° |
| 2026-05-09 14:05 | 51.32481 | 5.26378 | 2442 ft | 178 kts | 329° |
| 2026-05-09 14:05 | 51.33600 | 5.25851 | 2343 ft | 160 kts | 2° |
| 2026-05-09 14:05 | 51.34628 | 5.26172 | 2249 ft | 142 kts | 23° |
| 2026-05-09 14:06 | 51.35498 | 5.26879 | 2100 ft | 142 kts | 32° |
| 2026-05-09 14:06 | 51.36315 | 5.27726 | 1928 ft | 138 kts | 36° |
| 2026-05-09 14:06 | 51.37097 | 5.28593 | 1763 ft | 137 kts | 36° |
| 2026-05-09 14:06 | 51.37879 | 5.29467 | 1586 ft | 139 kts | 36° |
| 2026-05-09 14:07 | 51.38675 | 5.30370 | 1334 ft | 139 kts | 36° |
| 2026-05-09 14:07 | 51.39466 | 5.31258 | 1149 ft | 138 kts | 35° |
| 2026-05-09 14:07 | 51.40256 | 5.32115 | 952 ft | 136 kts | 35° |
| 2026-05-09 14:07 | 51.41034 | 5.32998 | 821 ft | 136 kts | 37° |
| 2026-05-09 14:08 | 51.41810 | 5.33887 | 619 ft | 137 kts | 35° |
| 2026-05-09 14:08 | 51.42592 | 5.34736 | 427 ft | 140 kts | 36° |
| 2026-05-09 14:08 | 51.43396 | 5.35633 | 296 ft | 143 kts | 37° |
| 2026-05-09 14:08 | 51.44165 | 5.36502 | 110 ft | 128 kts | 36° |
| 2026-05-09 14:09 | 51.44819 | 5.37235 | 79 ft | 92 kts | 35° |
| 2026-05-09 14:09 | 51.45191 | 5.37650 | 75 ft | 49 kts | 35° |
| 2026-05-09 14:09 | 51.45458 | 5.37948 | 82 ft | 46 kts | 32° |
| 2026-05-09 14:09 | 51.45716 | 5.38238 | 74 ft | 46 kts | 35° |
| 2026-05-09 14:10 | 51.45900 | 5.38531 | 76 ft | 11 kts | 122° |
| 2026-05-09 14:10 | 51.45879 | 5.38579 | 73 ft | 0 kts | 126° |
| 2026-05-09 14:10 | 51.45877 | 5.38582 | 73 ft | 2 kts | 126° |
| 2026-05-09 14:11 | 51.45856 | 5.38629 | 70 ft | 9 kts | 122° |
| 2026-05-09 14:11 | 51.45810 | 5.38738 | 69 ft | 15 kts | 125° |
| 2026-05-09 14:11 | 51.45787 | 5.38799 | 69 ft | 7 kts | 114° |
| 2026-05-09 14:11 | 51.45829 | 5.38875 | 73 ft | 9 kts | 34° |
| 2026-05-09 14:12 | 51.45855 | 5.38933 | 70 ft | 7 kts | 94° |
| 2026-05-09 14:12 | 51.45828 | 5.38999 | 67 ft | 6 kts | 125° |
| 2026-05-09 14:12 | 51.45824 | 5.39009 | 75 ft | 2 kts | 125° |
| 2026-05-09 14:12 | 51.45821 | 5.39016 | 75 ft | 0 kts | 125° |